Redwood City, CA (94061)

8:03 PM PST on November 22, 2014 (GMT -0800)
Jasper Ridge Biological Preserve | Change Station
CLOSE
Current Station
Personal Weather Station
Location: Woodside, CA
Elevation: 420 ft
Nearby Weather Stations

Elev 420 ft 37.41 °N, 122.24 °W | Updated 14 seconds ago

Clear
Clear
49.7 °F
Feels Like 50 °F
N
0.0
Wind Variable Wind from South
Gusts 3.0 mph

Today
High -- | Low -- °F
--% Chance of Precip.
Yesterday
High -- | Low -- °F
Precip. -- in
6:55 AM 4:54 PM
New Moon, 1% visible
Pressure 30.21 in
Visibility 10.0 miles
Clouds Clear
Windchill 50 °F
Dew Point 48 °F
Humidity 94%
Rainfall 0.31 in
Snow Depth Not available.
UV 0 out of 12
Pollen .40 out of 12
Air Quality Not available.
Flu Activity Not available.
METAR KSQL 230347Z 29007KT 10SM SKC 15/10 A3021

More Conditions Fewer Conditions

Pressure 30.21 in
Visibility 10.0 miles
Clouds Clear
Windchill 50 °F
Dew Point 48 °F
Humidity 94%
Rainfall 0.31 in
Snow Depth Not available.
UV 0 out of 12
Pollen .40 out of 12
Air Quality Not available.
Flu Activity Not available.
METAR KSQL 230347Z 29007KT 10SM SKC 15/10 A3021

More Conditions Fewer Conditions

10-Day Weather Forecast

Almanac

Astronomy

Nov. 22, 2014 Rise Set
Actual Time
Civil Twilight
Nautical Twilight
Astronomical Twilight
Moon
Length of Visible Light
Length of Day
Tomorrow will be .
, % of the Moon is Illuminated

Today's Extremes

State Highs State Lows

Community

WunderPhotos

Upload Photos

1,772,993 photos uploaded!

WunderBlogs® & News

Nearby

Air Quality

  Air Quality AQ Index Pollutant
Not available.

Snow Depth

Station Depth Elevation

Earthquake Activity

City Distance Mag. Time & Date
Minimum magnitude displayed is 2.5.

Coastal Water Temperatures

Place Temperature

Nearby Weather Stations